sensor_id;sensor_type;location;lat;lon;timestamp;P1;durP1;ratioP1;P2;durP2;ratioP2
67585;SDS011;55785;47.946;20.540;2023-06-24T00:00:51;5.43;;;1.00;;
67585;SDS011;55785;47.946;20.540;2023-06-24T00:03:16;3.55;;;0.80;;
67585;SDS011;55785;47.946;20.540;2023-06-24T00:05:41;1.67;;;1.00;;
67585;SDS011;55785;47.946;20.540;2023-06-24T00:08:06;4.68;;;1.08;;
67585;SDS011;55785;47.946;20.540;2023-06-24T00:10:32;3.40;;;0.98;;
67585;SDS011;55785;47.946;20.540;2023-06-24T00:12:57;3.38;;;1.00;;
67585;SDS011;55785;47.946;20.540;2023-06-24T00:15:22;6.10;;;0.80;;
67585;SDS011;55785;47.946;20.540;2023-06-24T00:17:47;4.00;;;0.90;;
67585;SDS011;55785;47.946;20.540;2023-06-24T00:20:12;2.10;;;1.00;;
67585;SDS011;55785;47.946;20.540;2023-06-24T00:22:38;4.25;;;0.90;;
67585;SDS011;55785;47.946;20.540;2023-06-24T00:25:03;3.53;;;1.00;;
67585;SDS011;55785;47.946;20.540;2023-06-24T00:27:28;4.90;;;1.10;;
67585;SDS011;55785;47.946;20.540;2023-06-24T00:29:54;4.57;;;0.90;;
67585;SDS011;55785;47.946;20.540;2023-06-24T00:32:19;4.57;;;0.90;;
67585;SDS011;55785;47.946;20.540;2023-06-24T00:34:44;1.95;;;0.90;;
67585;SDS011;55785;47.946;20.540;2023-06-24T00:37:09;5.30;;;0.93;;
67585;SDS011;55785;47.946;20.540;2023-06-24T00:39:35;1.90;;;0.70;;
67585;SDS011;55785;47.946;20.540;2023-06-24T00:42:00;1.90;;;0.90;;
67585;SDS011;55785;47.946;20.540;2023-06-24T00:44:25;2.75;;;0.82;;
67585;SDS011;55785;47.946;20.540;2023-06-24T00:46:50;2.28;;;0.95;;
67585;SDS011;55785;47.946;20.540;2023-06-24T00:49:16;2.08;;;0.90;;
67585;SDS011;55785;47.946;20.540;2023-06-24T00:51:41;3.03;;;1.55;;
67585;SDS011;55785;47.946;20.540;2023-06-24T00:54:06;2.47;;;0.95;;
67585;SDS011;55785;47.946;20.540;2023-06-24T00:56:33;2.78;;;1.00;;
67585;SDS011;55785;47.946;20.540;2023-06-24T00:58:58;3.97;;;1.00;;
67585;SDS011;55785;47.946;20.540;2023-06-24T01:01:24;1.58;;;1.10;;
67585;SDS011;55785;47.946;20.540;2023-06-24T01:03:50;2.33;;;1.30;;
67585;SDS011;55785;47.946;20.540;2023-06-24T01:06:15;1.77;;;1.10;;
67585;SDS011;55785;47.946;20.540;2023-06-24T01:08:41;2.92;;;1.20;;
67585;SDS011;55785;47.946;20.540;2023-06-24T01:11:06;4.32;;;1.20;;
67585;SDS011;55785;47.946;20.540;2023-06-24T01:13:31;1.73;;;1.20;;
67585;SDS011;55785;47.946;20.540;2023-06-24T01:15:58;2.25;;;1.10;;
67585;SDS011;55785;47.946;20.540;2023-06-24T01:18:30;3.75;;;1.48;;
67585;SDS011;55785;47.946;20.540;2023-06-24T01:26:14;2.55;;;1.30;;
67585;SDS011;55785;47.946;20.540;2023-06-24T01:29:01;2.33;;;1.30;;
67585;SDS011;55785;47.946;20.540;2023-06-24T01:34:15;4.15;;;1.27;;
67585;SDS011;55785;47.946;20.540;2023-06-24T01:36:47;2.20;;;1.30;;
67585;SDS011;55785;47.946;20.540;2023-06-24T01:39:14;4.22;;;1.58;;
67585;SDS011;55785;47.946;20.540;2023-06-24T01:41:51;3.15;;;1.40;;
67585;SDS011;55785;47.946;20.540;2023-06-24T01:44:18;2.08;;;1.45;;
67585;SDS011;55785;47.946;20.540;2023-06-24T01:46:46;5.90;;;1.60;;
67585;SDS011;55785;47.946;20.540;2023-06-24T01:49:12;3.50;;;1.40;;
67585;SDS011;55785;47.946;20.540;2023-06-24T01:51:38;9.02;;;1.60;;
67585;SDS011;55785;47.946;20.540;2023-06-24T01:54:05;2.60;;;1.30;;
67585;SDS011;55785;47.946;20.540;2023-06-24T01:56:31;3.70;;;1.40;;
67585;SDS011;55785;47.946;20.540;2023-06-24T01:58:58;2.85;;;1.40;;
67585;SDS011;55785;47.946;20.540;2023-06-24T02:01:25;2.58;;;1.40;;
67585;SDS011;55785;47.946;20.540;2023-06-24T02:03:50;4.30;;;1.35;;
67585;SDS011;55785;47.946;20.540;2023-06-24T02:06:16;2.55;;;1.38;;
67585;SDS011;55785;47.946;20.540;2023-06-24T02:08:43;2.13;;;1.25;;
67585;SDS011;55785;47.946;20.540;2023-06-24T02:11:08;2.20;;;1.27;;
67585;SDS011;55785;47.946;20.540;2023-06-24T02:13:34;4.18;;;1.45;;
67585;SDS011;55785;47.946;20.540;2023-06-24T02:16:00;3.50;;;1.50;;
67585;SDS011;55785;47.946;20.540;2023-06-24T02:18:27;2.88;;;1.30;;
67585;SDS011;55785;47.946;20.540;2023-06-24T02:20:52;4.85;;;1.35;;
67585;SDS011;55785;47.946;20.540;2023-06-24T02:23:18;2.70;;;1.30;;
67585;SDS011;55785;47.946;20.540;2023-06-24T02:25:44;5.28;;;1.40;;
67585;SDS011;55785;47.946;20.540;2023-06-24T02:28:09;3.45;;;1.40;;
67585;SDS011;55785;47.946;20.540;2023-06-24T02:30:35;2.67;;;1.42;;
67585;SDS011;55785;47.946;20.540;2023-06-24T02:33:01;3.45;;;1.35;;
67585;SDS011;55785;47.946;20.540;2023-06-24T02:35:26;2.13;;;1.20;;
67585;SDS011;55785;47.946;20.540;2023-06-24T02:37:51;4.70;;;1.63;;
67585;SDS011;55785;47.946;20.540;2023-06-24T02:40:16;5.13;;;1.40;;
67585;SDS011;55785;47.946;20.540;2023-06-24T02:42:41;3.10;;;1.20;;
67585;SDS011;55785;47.946;20.540;2023-06-24T02:45:07;5.10;;;1.20;;
67585;SDS011;55785;47.946;20.540;2023-06-24T02:47:33;4.53;;;1.38;;
67585;SDS011;55785;47.946;20.540;2023-06-24T02:49:58;3.75;;;1.40;;
67585;SDS011;55785;47.946;20.540;2023-06-24T02:52:24;1.67;;;1.23;;
67585;SDS011;55785;47.946;20.540;2023-06-24T02:54:49;3.88;;;1.48;;
67585;SDS011;55785;47.946;20.540;2023-06-24T02:57:14;3.78;;;1.73;;
67585;SDS011;55785;47.946;20.540;2023-06-24T02:59:40;3.55;;;1.70;;
67585;SDS011;55785;47.946;20.540;2023-06-24T03:02:05;6.97;;;1.90;;
67585;SDS011;55785;47.946;20.540;2023-06-24T03:04:30;5.53;;;1.67;;
67585;SDS011;55785;47.946;20.540;2023-06-24T03:06:55;3.25;;;1.52;;
67585;SDS011;55785;47.946;20.540;2023-06-24T03:09:21;3.80;;;1.58;;
67585;SDS011;55785;47.946;20.540;2023-06-24T03:11:46;3.10;;;2.03;;
67585;SDS011;55785;47.946;20.540;2023-06-24T03:14:13;5.00;;;1.90;;
67585;SDS011;55785;47.946;20.540;2023-06-24T03:16:38;2.65;;;2.00;;
67585;SDS011;55785;47.946;20.540;2023-06-24T03:19:04;3.33;;;2.10;;
67585;SDS011;55785;47.946;20.540;2023-06-24T03:21:29;4.15;;;2.00;;
67585;SDS011;55785;47.946;20.540;2023-06-24T03:23:54;2.50;;;1.90;;
67585;SDS011;55785;47.946;20.540;2023-06-24T03:26:20;5.38;;;2.05;;
67585;SDS011;55785;47.946;20.540;2023-06-24T03:28:45;2.83;;;2.17;;
67585;SDS011;55785;47.946;20.540;2023-06-24T03:31:10;3.20;;;2.42;;
67585;SDS011;55785;47.946;20.540;2023-06-24T03:33:35;7.13;;;2.30;;
67585;SDS011;55785;47.946;20.540;2023-06-24T03:36:01;4.05;;;2.10;;
67585;SDS011;55785;47.946;20.540;2023-06-24T03:38:26;5.03;;;2.22;;
67585;SDS011;55785;47.946;20.540;2023-06-24T03:40:51;7.13;;;2.70;;
67585;SDS011;55785;47.946;20.540;2023-06-24T03:43:16;3.15;;;2.42;;
67585;SDS011;55785;47.946;20.540;2023-06-24T03:45:41;4.82;;;2.20;;
67585;SDS011;55785;47.946;20.540;2023-06-24T03:48:07;3.53;;;2.55;;
67585;SDS011;55785;47.946;20.540;2023-06-24T03:50:32;5.72;;;2.58;;
67585;SDS011;55785;47.946;20.540;2023-06-24T03:52:57;4.82;;;2.40;;
67585;SDS011;55785;47.946;20.540;2023-06-24T03:55:22;3.75;;;2.60;;
67585;SDS011;55785;47.946;20.540;2023-06-24T03:57:47;6.88;;;2.45;;
67585;SDS011;55785;47.946;20.540;2023-06-24T04:00:13;3.13;;;2.50;;
67585;SDS011;55785;47.946;20.540;2023-06-24T04:02:38;7.18;;;2.72;;
67585;SDS011;55785;47.946;20.540;2023-06-24T04:05:03;5.50;;;2.40;;
67585;SDS011;55785;47.946;20.540;2023-06-24T04:07:29;3.65;;;2.38;;
67585;SDS011;55785;47.946;20.540;2023-06-24T04:09:54;10.00;;;2.50;;
67585;SDS011;55785;47.946;20.540;2023-06-24T04:12:20;4.75;;;2.40;;
67585;SDS011;55785;47.946;20.540;2023-06-24T04:14:45;4.05;;;2.10;;
67585;SDS011;55785;47.946;20.540;2023-06-24T04:17:10;5.05;;;2.42;;
67585;SDS011;55785;47.946;20.540;2023-06-24T04:19:35;6.10;;;2.38;;
67585;SDS011;55785;47.946;20.540;2023-06-24T04:22:01;4.05;;;2.08;;
67585;SDS011;55785;47.946;20.540;2023-06-24T04:24:26;3.00;;;2.10;;
67585;SDS011;55785;47.946;20.540;2023-06-24T04:26:51;9.68;;;2.72;;
67585;SDS011;55785;47.946;20.540;2023-06-24T04:29:16;3.35;;;2.58;;
67585;SDS011;55785;47.946;20.540;2023-06-24T04:31:41;7.05;;;2.75;;
67585;SDS011;55785;47.946;20.540;2023-06-24T04:34:07;9.50;;;2.53;;
67585;SDS011;55785;47.946;20.540;2023-06-24T04:36:32;4.55;;;2.85;;
67585;SDS011;55785;47.946;20.540;2023-06-24T04:38:57;4.07;;;2.42;;
67585;SDS011;55785;47.946;20.540;2023-06-24T04:41:22;4.82;;;2.45;;
67585;SDS011;55785;47.946;20.540;2023-06-24T04:43:47;3.78;;;2.30;;
67585;SDS011;55785;47.946;20.540;2023-06-24T04:46:13;5.90;;;2.63;;
67585;SDS011;55785;47.946;20.540;2023-06-24T04:48:38;5.00;;;2.50;;
67585;SDS011;55785;47.946;20.540;2023-06-24T04:51:03;5.00;;;2.50;;
67585;SDS011;55785;47.946;20.540;2023-06-24T04:53:28;5.50;;;3.10;;
67585;SDS011;55785;47.946;20.540;2023-06-24T04:55:53;5.32;;;3.13;;
67585;SDS011;55785;47.946;20.540;2023-06-24T04:58:19;3.55;;;2.75;;
67585;SDS011;55785;47.946;20.540;2023-06-24T05:00:44;5.20;;;3.60;;
67585;SDS011;55785;47.946;20.540;2023-06-24T05:03:09;5.95;;;3.75;;
67585;SDS011;55785;47.946;20.540;2023-06-24T05:05:34;5.28;;;3.80;;
67585;SDS011;55785;47.946;20.540;2023-06-24T05:07:59;7.90;;;4.22;;
67585;SDS011;55785;47.946;20.540;2023-06-24T05:10:25;6.53;;;3.97;;
67585;SDS011;55785;47.946;20.540;2023-06-24T05:12:50;6.03;;;4.40;;
67585;SDS011;55785;47.946;20.540;2023-06-24T05:15:15;8.85;;;4.30;;
67585;SDS011;55785;47.946;20.540;2023-06-24T05:17:40;6.40;;;4.20;;
67585;SDS011;55785;47.946;20.540;2023-06-24T05:20:05;6.35;;;4.13;;
67585;SDS011;55785;47.946;20.540;2023-06-24T05:22:31;4.47;;;3.85;;
67585;SDS011;55785;47.946;20.540;2023-06-24T05:24:56;5.95;;;3.60;;
67585;SDS011;55785;47.946;20.540;2023-06-24T05:27:21;3.63;;;3.00;;
67585;SDS011;55785;47.946;20.540;2023-06-24T05:29:46;4.38;;;2.97;;
67585;SDS011;55785;47.946;20.540;2023-06-24T05:32:12;5.40;;;3.42;;
67585;SDS011;55785;47.946;20.540;2023-06-24T05:34:37;4.97;;;3.25;;
67585;SDS011;55785;47.946;20.540;2023-06-24T05:37:02;4.93;;;3.63;;
67585;SDS011;55785;47.946;20.540;2023-06-24T05:39:27;5.60;;;4.05;;
67585;SDS011;55785;47.946;20.540;2023-06-24T05:41:53;4.97;;;3.90;;
67585;SDS011;55785;47.946;20.540;2023-06-24T05:44:18;5.40;;;3.72;;
67585;SDS011;55785;47.946;20.540;2023-06-24T05:46:46;4.28;;;3.70;;
67585;SDS011;55785;47.946;20.540;2023-06-24T05:49:11;4.97;;;3.53;;
67585;SDS011;55785;47.946;20.540;2023-06-24T05:51:36;7.13;;;3.58;;
67585;SDS011;55785;47.946;20.540;2023-06-24T05:54:02;4.00;;;3.35;;
67585;SDS011;55785;47.946;20.540;2023-06-24T05:56:27;4.28;;;3.00;;
67585;SDS011;55785;47.946;20.540;2023-06-24T05:58:52;3.65;;;2.80;;
67585;SDS011;55785;47.946;20.540;2023-06-24T06:01:17;4.00;;;2.80;;
67585;SDS011;55785;47.946;20.540;2023-06-24T06:03:42;4.93;;;3.30;;
67585;SDS011;55785;47.946;20.540;2023-06-24T06:06:08;5.28;;;3.30;;
67585;SDS011;55785;47.946;20.540;2023-06-24T06:08:33;3.60;;;2.70;;
67585;SDS011;55785;47.946;20.540;2023-06-24T06:10:59;3.65;;;2.83;;
67585;SDS011;55785;47.946;20.540;2023-06-24T06:13:24;4.18;;;3.15;;
67585;SDS011;55785;47.946;20.540;2023-06-24T06:15:49;5.95;;;4.00;;
67585;SDS011;55785;47.946;20.540;2023-06-24T06:18:14;4.68;;;3.30;;
67585;SDS011;55785;47.946;20.540;2023-06-24T06:20:39;4.40;;;3.15;;
67585;SDS011;55785;47.946;20.540;2023-06-24T06:23:05;4.45;;;3.28;;
67585;SDS011;55785;47.946;20.540;2023-06-24T06:25:30;5.03;;;3.50;;
67585;SDS011;55785;47.946;20.540;2023-06-24T06:27:55;4.63;;;3.10;;
67585;SDS011;55785;47.946;20.540;2023-06-24T06:30:20;3.70;;;2.95;;
67585;SDS011;55785;47.946;20.540;2023-06-24T06:32:45;4.50;;;2.97;;
67585;SDS011;55785;47.946;20.540;2023-06-24T06:35:11;5.85;;;3.10;;
67585;SDS011;55785;47.946;20.540;2023-06-24T06:37:36;5.75;;;3.58;;
67585;SDS011;55785;47.946;20.540;2023-06-24T06:40:01;4.03;;;2.90;;
67585;SDS011;55785;47.946;20.540;2023-06-24T06:42:27;5.95;;;3.25;;
67585;SDS011;55785;47.946;20.540;2023-06-24T06:44:52;3.60;;;2.80;;
67585;SDS011;55785;47.946;20.540;2023-06-24T06:47:17;3.22;;;2.55;;
67585;SDS011;55785;47.946;20.540;2023-06-24T06:49:42;4.75;;;3.10;;
67585;SDS011;55785;47.946;20.540;2023-06-24T06:52:08;3.22;;;2.63;;
67585;SDS011;55785;47.946;20.540;2023-06-24T06:54:33;3.85;;;2.88;;
67585;SDS011;55785;47.946;20.540;2023-06-24T06:57:02;4.10;;;2.85;;
67585;SDS011;55785;47.946;20.540;2023-06-24T06:59:27;4.95;;;3.20;;
67585;SDS011;55785;47.946;20.540;2023-06-24T07:01:52;3.80;;;3.20;;
67585;SDS011;55785;47.946;20.540;2023-06-24T07:04:18;5.15;;;3.08;;
67585;SDS011;55785;47.946;20.540;2023-06-24T07:06:43;5.78;;;3.17;;
67585;SDS011;55785;47.946;20.540;2023-06-24T07:09:08;4.72;;;2.83;;
67585;SDS011;55785;47.946;20.540;2023-06-24T07:11:33;4.72;;;3.13;;
67585;SDS011;55785;47.946;20.540;2023-06-24T07:13:58;4.30;;;2.97;;
67585;SDS011;55785;47.946;20.540;2023-06-24T07:16:24;4.20;;;2.58;;
67585;SDS011;55785;47.946;20.540;2023-06-24T07:18:49;3.40;;;3.10;;
67585;SDS011;55785;47.946;20.540;2023-06-24T07:21:14;5.15;;;3.70;;
67585;SDS011;55785;47.946;20.540;2023-06-24T07:23:39;3.95;;;3.55;;
67585;SDS011;55785;47.946;20.540;2023-06-24T07:26:04;5.20;;;3.90;;
67585;SDS011;55785;47.946;20.540;2023-06-24T07:28:30;4.90;;;3.92;;
67585;SDS011;55785;47.946;20.540;2023-06-24T07:30:55;5.03;;;3.95;;
67585;SDS011;55785;47.946;20.540;2023-06-24T07:33:20;6.38;;;3.78;;
67585;SDS011;55785;47.946;20.540;2023-06-24T07:35:45;3.72;;;3.22;;
67585;SDS011;55785;47.946;20.540;2023-06-24T07:38:10;5.80;;;3.63;;
67585;SDS011;55785;47.946;20.540;2023-06-24T07:40:36;4.43;;;3.67;;
67585;SDS011;55785;47.946;20.540;2023-06-24T07:43:01;6.28;;;3.50;;
67585;SDS011;55785;47.946;20.540;2023-06-24T07:45:26;3.90;;;3.33;;
67585;SDS011;55785;47.946;20.540;2023-06-24T07:47:51;4.47;;;3.30;;
67585;SDS011;55785;47.946;20.540;2023-06-24T07:50:16;5.63;;;3.50;;
67585;SDS011;55785;47.946;20.540;2023-06-24T07:52:42;3.80;;;3.20;;
67585;SDS011;55785;47.946;20.540;2023-06-24T07:55:07;6.30;;;3.30;;
67585;SDS011;55785;47.946;20.540;2023-06-24T07:57:32;5.75;;;3.28;;
67585;SDS011;55785;47.946;20.540;2023-06-24T07:59:57;4.43;;;3.60;;
67585;SDS011;55785;47.946;20.540;2023-06-24T08:02:23;3.83;;;3.28;;
67585;SDS011;55785;47.946;20.540;2023-06-24T08:04:48;3.72;;;3.35;;
67585;SDS011;55785;47.946;20.540;2023-06-24T08:07:13;4.22;;;3.13;;
67585;SDS011;55785;47.946;20.540;2023-06-24T08:09:41;4.85;;;3.25;;
67585;SDS011;55785;47.946;20.540;2023-06-24T08:12:07;5.03;;;3.33;;
67585;SDS011;55785;47.946;20.540;2023-06-24T08:14:32;4.90;;;3.72;;
67585;SDS011;55785;47.946;20.540;2023-06-24T08:16:57;6.07;;;3.45;;
67585;SDS011;55785;47.946;20.540;2023-06-24T08:19:23;5.18;;;3.55;;
67585;SDS011;55785;47.946;20.540;2023-06-24T08:21:50;6.57;;;3.20;;
67585;SDS011;55785;47.946;20.540;2023-06-24T08:24:16;4.68;;;3.30;;
67585;SDS011;55785;47.946;20.540;2023-06-24T08:26:41;4.35;;;3.58;;
67585;SDS011;55785;47.946;20.540;2023-06-24T08:29:06;4.65;;;3.50;;
67585;SDS011;55785;47.946;20.540;2023-06-24T08:31:34;4.68;;;3.40;;
67585;SDS011;55785;47.946;20.540;2023-06-24T08:34:02;4.95;;;3.50;;
67585;SDS011;55785;47.946;20.540;2023-06-24T08:36:28;4.78;;;3.25;;
67585;SDS011;55785;47.946;20.540;2023-06-24T08:38:53;5.90;;;3.50;;
67585;SDS011;55785;47.946;20.540;2023-06-24T08:41:19;3.90;;;3.10;;
67585;SDS011;55785;47.946;20.540;2023-06-24T08:43:44;3.72;;;2.90;;
67585;SDS011;55785;47.946;20.540;2023-06-24T08:46:09;4.78;;;3.03;;
67585;SDS011;55785;47.946;20.540;2023-06-24T08:48:36;7.32;;;3.35;;
67585;SDS011;55785;47.946;20.540;2023-06-24T08:51:04;3.83;;;3.20;;
67585;SDS011;55785;47.946;20.540;2023-06-24T08:53:32;4.18;;;2.78;;
67585;SDS011;55785;47.946;20.540;2023-06-24T08:55:57;3.53;;;2.83;;
67585;SDS011;55785;47.946;20.540;2023-06-24T08:58:23;4.47;;;3.50;;
67585;SDS011;55785;47.946;20.540;2023-06-24T09:00:48;4.10;;;2.90;;
67585;SDS011;55785;47.946;20.540;2023-06-24T09:03:14;3.30;;;2.65;;
67585;SDS011;55785;47.946;20.540;2023-06-24T09:05:39;5.40;;;2.80;;
67585;SDS011;55785;47.946;20.540;2023-06-24T09:08:04;3.55;;;3.10;;
67585;SDS011;55785;47.946;20.540;2023-06-24T09:10:30;4.57;;;3.10;;
67585;SDS011;55785;47.946;20.540;2023-06-24T09:13:00;6.72;;;2.70;;
67585;SDS011;55785;47.946;20.540;2023-06-24T09:15:29;4.07;;;2.80;;
67585;SDS011;55785;47.946;20.540;2023-06-24T09:17:55;4.07;;;2.83;;
67585;SDS011;55785;47.946;20.540;2023-06-24T09:20:20;4.07;;;2.55;;
67585;SDS011;55785;47.946;20.540;2023-06-24T09:22:46;4.85;;;3.13;;
67585;SDS011;55785;47.946;20.540;2023-06-24T09:25:16;5.40;;;2.70;;
67585;SDS011;55785;47.946;20.540;2023-06-24T09:27:45;3.90;;;2.58;;
67585;SDS011;55785;47.946;20.540;2023-06-24T09:30:16;3.88;;;2.60;;
67585;SDS011;55785;47.946;20.540;2023-06-24T09:32:45;4.20;;;2.80;;
67585;SDS011;55785;47.946;20.540;2023-06-24T09:35:10;4.78;;;2.92;;
67585;SDS011;55785;47.946;20.540;2023-06-24T09:37:36;3.78;;;2.78;;
67585;SDS011;55785;47.946;20.540;2023-06-24T09:40:01;2.88;;;2.55;;
67585;SDS011;55785;47.946;20.540;2023-06-24T09:42:27;3.80;;;2.38;;
67585;SDS011;55785;47.946;20.540;2023-06-24T09:44:53;3.95;;;2.20;;
67585;SDS011;55785;47.946;20.540;2023-06-24T09:47:19;5.47;;;2.50;;
67585;SDS011;55785;47.946;20.540;2023-06-24T09:49:44;3.67;;;2.33;;
67585;SDS011;55785;47.946;20.540;2023-06-24T09:52:09;3.45;;;2.55;;
67585;SDS011;55785;47.946;20.540;2023-06-24T09:54:37;4.57;;;2.65;;
67585;SDS011;55785;47.946;20.540;2023-06-24T09:57:03;2.75;;;2.40;;
67585;SDS011;55785;47.946;20.540;2023-06-24T09:59:30;2.28;;;2.00;;
67585;SDS011;55785;47.946;20.540;2023-06-24T10:01:56;3.92;;;2.40;;
67585;SDS011;55785;47.946;20.540;2023-06-24T10:04:22;2.75;;;2.10;;
67585;SDS011;55785;47.946;20.540;2023-06-24T10:06:50;3.58;;;2.30;;
67585;SDS011;55785;47.946;20.540;2023-06-24T10:09:15;3.88;;;2.38;;
67585;SDS011;55785;47.946;20.540;2023-06-24T10:11:41;3.08;;;2.28;;
67585;SDS011;55785;47.946;20.540;2023-06-24T10:14:06;3.95;;;2.40;;
67585;SDS011;55785;47.946;20.540;2023-06-24T10:16:32;2.58;;;2.30;;
67585;SDS011;55785;47.946;20.540;2023-06-24T10:19:01;4.65;;;2.38;;
67585;SDS011;55785;47.946;20.540;2023-06-24T10:24:28;3.50;;;2.47;;
67585;SDS011;55785;47.946;20.540;2023-06-24T10:26:53;3.22;;;2.28;;
67585;SDS011;55785;47.946;20.540;2023-06-24T10:29:22;3.70;;;2.22;;
67585;SDS011;55785;47.946;20.540;2023-06-24T10:31:55;5.80;;;2.08;;
67585;SDS011;55785;47.946;20.540;2023-06-24T10:34:27;3.50;;;2.20;;
67585;SDS011;55785;47.946;20.540;2023-06-24T10:36:56;3.33;;;2.28;;
67585;SDS011;55785;47.946;20.540;2023-06-24T10:44:48;3.75;;;2.30;;
67585;SDS011;55785;47.946;20.540;2023-06-24T10:47:15;4.47;;;2.35;;
67585;SDS011;55785;47.946;20.540;2023-06-24T10:49:40;3.55;;;2.20;;
67585;SDS011;55785;47.946;20.540;2023-06-24T10:52:11;2.97;;;2.10;;
67585;SDS011;55785;47.946;20.540;2023-06-24T10:54:37;3.58;;;2.47;;
67585;SDS011;55785;47.946;20.540;2023-06-24T10:57:04;5.57;;;2.28;;
67585;SDS011;55785;47.946;20.540;2023-06-24T10:59:34;3.13;;;2.40;;
67585;SDS011;55785;47.946;20.540;2023-06-24T11:01:59;3.25;;;2.50;;
67585;SDS011;55785;47.946;20.540;2023-06-24T11:04:25;3.10;;;2.42;;
67585;SDS011;55785;47.946;20.540;2023-06-24T11:06:57;4.72;;;2.60;;
67585;SDS011;55785;47.946;20.540;2023-06-24T11:09:27;4.25;;;2.45;;
67585;SDS011;55785;47.946;20.540;2023-06-24T11:11:53;4.40;;;2.63;;
67585;SDS011;55785;47.946;20.540;2023-06-24T11:14:21;3.13;;;2.50;;
67585;SDS011;55785;47.946;20.540;2023-06-24T11:16:46;4.18;;;2.70;;
67585;SDS011;55785;47.946;20.540;2023-06-24T11:19:12;3.55;;;2.30;;
67585;SDS011;55785;47.946;20.540;2023-06-24T11:21:38;3.75;;;2.53;;
67585;SDS011;55785;47.946;20.540;2023-06-24T11:24:03;3.33;;;2.40;;
67585;SDS011;55785;47.946;20.540;2023-06-24T11:26:29;2.95;;;2.40;;
67585;SDS011;55785;47.946;20.540;2023-06-24T11:28:54;3.83;;;2.60;;
67585;SDS011;55785;47.946;20.540;2023-06-24T11:31:26;3.10;;;2.70;;
67585;SDS011;55785;47.946;20.540;2023-06-24T11:33:52;3.38;;;2.92;;
67585;SDS011;55785;47.946;20.540;2023-06-24T11:36:18;3.47;;;2.30;;
67585;SDS011;55785;47.946;20.540;2023-06-24T11:38:47;6.28;;;2.70;;
67585;SDS011;55785;47.946;20.540;2023-06-24T11:41:12;4.15;;;2.50;;
67585;SDS011;55785;47.946;20.540;2023-06-24T11:43:43;4.93;;;2.58;;
67585;SDS011;55785;47.946;20.540;2023-06-24T11:46:10;3.25;;;2.25;;
67585;SDS011;55785;47.946;20.540;2023-06-24T11:48:39;2.95;;;2.45;;
67585;SDS011;55785;47.946;20.540;2023-06-24T11:51:11;4.53;;;2.60;;
67585;SDS011;55785;47.946;20.540;2023-06-24T11:53:44;4.25;;;2.70;;
67585;SDS011;55785;47.946;20.540;2023-06-24T11:56:09;4.70;;;2.05;;
67585;SDS011;55785;47.946;20.540;2023-06-24T11:58:35;3.53;;;2.38;;
67585;SDS011;55785;47.946;20.540;2023-06-24T12:01:01;5.57;;;2.28;;
67585;SDS011;55785;47.946;20.540;2023-06-24T12:03:29;3.72;;;2.40;;
67585;SDS011;55785;47.946;20.540;2023-06-24T12:05:55;3.08;;;2.30;;
67585;SDS011;55785;47.946;20.540;2023-06-24T12:08:20;2.83;;;2.15;;
67585;SDS011;55785;47.946;20.540;2023-06-24T12:10:45;3.03;;;2.35;;
67585;SDS011;55785;47.946;20.540;2023-06-24T12:13:11;7.30;;;2.10;;
67585;SDS011;55785;47.946;20.540;2023-06-24T12:15:36;2.78;;;2.00;;
67585;SDS011;55785;47.946;20.540;2023-06-24T12:18:02;4.70;;;2.40;;
67585;SDS011;55785;47.946;20.540;2023-06-24T12:20:27;6.30;;;2.38;;
67585;SDS011;55785;47.946;20.540;2023-06-24T12:22:54;3.13;;;2.10;;
67585;SDS011;55785;47.946;20.540;2023-06-24T12:25:19;5.72;;;2.00;;
67585;SDS011;55785;47.946;20.540;2023-06-24T12:27:44;2.38;;;1.83;;
67585;SDS011;55785;47.946;20.540;2023-06-24T12:30:10;4.28;;;1.90;;
67585;SDS011;55785;47.946;20.540;2023-06-24T12:32:36;3.13;;;2.00;;
67585;SDS011;55785;47.946;20.540;2023-06-24T12:35:02;2.72;;;1.83;;
67585;SDS011;55785;47.946;20.540;2023-06-24T12:37:29;3.90;;;1.90;;
67585;SDS011;55785;47.946;20.540;2023-06-24T12:39:55;3.00;;;2.00;;
67585;SDS011;55785;47.946;20.540;2023-06-24T12:42:21;3.42;;;1.95;;
67585;SDS011;55785;47.946;20.540;2023-06-24T12:44:46;3.25;;;2.10;;
67585;SDS011;55785;47.946;20.540;2023-06-24T12:47:11;3.72;;;1.90;;
67585;SDS011;55785;47.946;20.540;2023-06-24T12:49:37;2.35;;;1.85;;
67585;SDS011;55785;47.946;20.540;2023-06-24T12:52:02;5.65;;;2.00;;
67585;SDS011;55785;47.946;20.540;2023-06-24T12:54:27;3.72;;;1.65;;
67585;SDS011;55785;47.946;20.540;2023-06-24T12:56:53;3.90;;;1.70;;
67585;SDS011;55785;47.946;20.540;2023-06-24T12:59:18;2.78;;;1.70;;
67585;SDS011;55785;47.946;20.540;2023-06-24T13:01:43;3.35;;;1.95;;
67585;SDS011;55785;47.946;20.540;2023-06-24T13:04:09;2.05;;;1.63;;
67585;SDS011;55785;47.946;20.540;2023-06-24T13:06:34;4.68;;;1.90;;
67585;SDS011;55785;47.946;20.540;2023-06-24T13:08:59;2.63;;;1.75;;
67585;SDS011;55785;47.946;20.540;2023-06-24T13:11:25;3.30;;;1.50;;
67585;SDS011;55785;47.946;20.540;2023-06-24T13:13:50;2.50;;;1.65;;
67585;SDS011;55785;47.946;20.540;2023-06-24T13:16:15;2.67;;;1.67;;
67585;SDS011;55785;47.946;20.540;2023-06-24T13:18:41;2.20;;;1.80;;
67585;SDS011;55785;47.946;20.540;2023-06-24T13:21:06;3.55;;;1.60;;
67585;SDS011;55785;47.946;20.540;2023-06-24T13:23:31;2.42;;;1.63;;
67585;SDS011;55785;47.946;20.540;2023-06-24T13:25:57;3.03;;;1.70;;
67585;SDS011;55785;47.946;20.540;2023-06-24T13:28:22;3.63;;;1.63;;
67585;SDS011;55785;47.946;20.540;2023-06-24T13:30:47;2.65;;;1.80;;
67585;SDS011;55785;47.946;20.540;2023-06-24T13:33:13;3.42;;;1.55;;
67585;SDS011;55785;47.946;20.540;2023-06-24T13:35:38;2.67;;;1.70;;
67585;SDS011;55785;47.946;20.540;2023-06-24T13:38:04;3.60;;;1.63;;
67585;SDS011;55785;47.946;20.540;2023-06-24T13:40:29;4.72;;;1.92;;
67585;SDS011;55785;47.946;20.540;2023-06-24T13:42:54;2.25;;;1.55;;
67585;SDS011;55785;47.946;20.540;2023-06-24T13:45:20;3.90;;;1.70;;
67585;SDS011;55785;47.946;20.540;2023-06-24T13:47:45;3.28;;;1.77;;
67585;SDS011;55785;47.946;20.540;2023-06-24T13:50:10;2.90;;;1.70;;
67585;SDS011;55785;47.946;20.540;2023-06-24T13:52:36;2.90;;;1.65;;
67585;SDS011;55785;47.946;20.540;2023-06-24T13:55:01;2.92;;;1.60;;
67585;SDS011;55785;47.946;20.540;2023-06-24T13:57:26;3.30;;;1.65;;
67585;SDS011;55785;47.946;20.540;2023-06-24T13:59:52;3.30;;;1.67;;
67585;SDS011;55785;47.946;20.540;2023-06-24T14:02:17;3.63;;;1.70;;
67585;SDS011;55785;47.946;20.540;2023-06-24T14:04:42;2.00;;;1.60;;
67585;SDS011;55785;47.946;20.540;2023-06-24T14:07:08;3.72;;;1.80;;
67585;SDS011;55785;47.946;20.540;2023-06-24T14:09:39;2.95;;;1.77;;
67585;SDS011;55785;47.946;20.540;2023-06-24T14:12:05;3.85;;;1.90;;
67585;SDS011;55785;47.946;20.540;2023-06-24T14:14:31;4.43;;;1.98;;
67585;SDS011;55785;47.946;20.540;2023-06-24T14:16:57;4.90;;;1.90;;
67585;SDS011;55785;47.946;20.540;2023-06-24T14:19:22;3.45;;;2.10;;
67585;SDS011;55785;47.946;20.540;2023-06-24T14:21:48;3.53;;;2.15;;
67585;SDS011;55785;47.946;20.540;2023-06-24T14:24:13;4.32;;;2.17;;
67585;SDS011;55785;47.946;20.540;2023-06-24T14:26:39;4.28;;;1.80;;
67585;SDS011;55785;47.946;20.540;2023-06-24T14:29:04;3.03;;;1.77;;
67585;SDS011;55785;47.946;20.540;2023-06-24T14:31:29;4.50;;;1.70;;
67585;SDS011;55785;47.946;20.540;2023-06-24T14:33:55;3.28;;;2.10;;
67585;SDS011;55785;47.946;20.540;2023-06-24T14:36:22;2.38;;;1.90;;
67585;SDS011;55785;47.946;20.540;2023-06-24T14:38:48;3.03;;;1.90;;
67585;SDS011;55785;47.946;20.540;2023-06-24T14:41:13;3.33;;;2.05;;